createdAt,value
2022-10-31T00:02:27.411Z,29.15
2022-10-31T00:06:43.530Z,34.40
2022-10-31T00:10:59.746Z,33.75
2022-10-31T00:15:15.969Z,31.95
2022-10-31T00:19:32.167Z,31.15
2022-10-31T00:23:48.808Z,32.10
2022-10-31T00:28:07.051Z,31.08
2022-10-31T00:32:23.469Z,28.55
2022-10-31T00:36:39.619Z,25.65
2022-10-31T00:40:55.722Z,28.27
2022-10-31T00:45:12.604Z,27.00
2022-10-31T00:49:28.810Z,21.27
2022-10-31T00:53:45.138Z,32.58
2022-10-31T00:58:01.591Z,22.60
2022-10-31T01:02:18.081Z,32.53
2022-10-31T01:06:34.331Z,31.12
2022-10-31T01:11:20.281Z,23.33
2022-10-31T01:15:36.494Z,59.75
2022-10-31T01:19:52.591Z,28.02
2022-10-31T01:24:09.145Z,68.68
2022-10-31T01:32:46.799Z,35.92
2022-10-31T01:37:02.991Z,28.92
2022-10-31T01:41:22.293Z,29.00
2022-10-31T01:45:38.450Z,75.68
2022-10-31T01:49:58.106Z,127.03
2022-10-31T01:54:17.113Z,54.50
2022-10-31T01:58:33.556Z,26.98
2022-10-31T02:02:50.845Z,34.67
2022-10-31T02:07:31.763Z,34.28
2022-10-31T02:11:48.138Z,30.42
2022-10-31T02:16:04.507Z,24.27
2022-10-31T02:20:25.563Z,27.15
2022-10-31T02:24:47.541Z,26.27
2022-10-31T02:29:12.637Z,36.08
2022-10-31T02:33:45.583Z,37.13
2022-10-31T02:38:40.589Z,28.50
2022-10-31T02:47:38.426Z,35.25
2022-10-31T02:51:54.616Z,65.30
2022-10-31T02:56:18.556Z,133.48
2022-10-31T03:01:00.059Z,256.08
2022-10-31T03:05:29.039Z,379.92
2022-10-31T03:10:21.424Z,204.27
2022-10-31T03:14:43.403Z,181.50
2022-10-31T03:19:16.889Z,28.83
2022-10-31T03:23:34.063Z,43.53
2022-10-31T03:27:51.007Z,132.80
2022-10-31T03:32:24.130Z,28.62
2022-10-31T03:36:41.786Z,24.63
2022-10-31T03:40:59.591Z,29.10
2022-10-31T03:45:22.385Z,22.62
2022-10-31T03:49:38.788Z,23.38
2022-10-31T03:53:58.467Z,30.33
2022-10-31T04:02:42.738Z,23.67
2022-10-31T04:07:01.183Z,22.45
2022-10-31T04:11:19.448Z,26.98
2022-10-31T04:15:36.479Z,34.40
2022-10-31T04:19:52.604Z,27.23
2022-10-31T04:24:09.102Z,46.03
2022-10-31T04:28:25.307Z,36.30
2022-10-31T04:32:41.387Z,32.20
2022-10-31T04:36:57.526Z,38.28
2022-10-31T04:41:14.073Z,29.25
2022-10-31T04:45:30.220Z,104.70
2022-10-31T04:49:46.353Z,195.30
2022-10-31T04:54:02.544Z,116.25
2022-10-31T04:58:18.762Z,27.25
2022-10-31T05:02:34.899Z,39.60
2022-10-31T05:06:51.330Z,221.95
2022-10-31T05:11:07.625Z,31.77
2022-10-31T05:15:26.181Z,72.05
2022-10-31T05:19:42.394Z,29.02
2022-10-31T05:23:58.548Z,87.30
2022-10-31T05:28:14.696Z,327.50
2022-10-31T05:32:31.004Z,269.23
2022-10-31T05:36:47.111Z,148.32
2022-10-31T05:41:03.340Z,238.52
2022-10-31T05:45:20.055Z,42.28
2022-10-31T05:49:36.248Z,76.37
2022-10-31T05:53:52.521Z,76.80
2022-10-31T05:58:08.827Z,36.20
2022-10-31T06:02:25.074Z,74.22
2022-10-31T06:06:41.217Z,96.37
2022-10-31T06:10:57.333Z,108.07
2022-10-31T06:15:13.830Z,53.30
2022-10-31T06:19:30.057Z,52.80
2022-10-31T06:23:46.174Z,54.08
2022-10-31T06:28:02.398Z,69.30
2022-10-31T06:32:18.592Z,81.10
2022-10-31T06:36:34.660Z,33.78
2022-10-31T06:40:50.793Z,41.50
2022-10-31T06:45:07.473Z,74.62
2022-10-31T06:49:23.961Z,40.53
2022-10-31T06:53:40.102Z,41.17
2022-10-31T06:58:03.057Z,38.75
2022-10-31T07:02:19.608Z,63.87
2022-10-31T07:06:35.695Z,248.45
2022-10-31T07:10:57.194Z,386.83
2022-10-31T07:15:13.449Z,235.80
2022-10-31T07:19:29.529Z,46.70
2022-10-31T07:23:48.385Z,51.03
2022-10-31T07:28:04.746Z,95.50
2022-10-31T07:32:21.014Z,34.40
2022-10-31T07:36:37.165Z,38.35
2022-10-31T07:40:54.389Z,35.90
2022-10-31T07:45:13.192Z,36.20
2022-10-31T07:49:29.268Z,50.85
2022-10-31T07:53:46.059Z,41.45
2022-10-31T07:58:07.543Z,42.90
2022-10-31T08:02:23.702Z,35.70
2022-10-31T08:06:39.772Z,37.67
2022-10-31T08:10:59.685Z,40.15
2022-10-31T08:15:15.993Z,36.38
2022-10-31T08:19:32.046Z,28.50
2022-10-31T08:23:48.111Z,32.83
2022-10-31T08:28:04.893Z,33.30
2022-10-31T08:32:27.456Z,39.30
2022-10-31T08:36:46.096Z,29.90
2022-10-31T08:41:02.275Z,34.70
2022-10-31T08:45:18.385Z,30.17
2022-10-31T08:49:34.588Z,30.23
2022-10-31T08:53:50.706Z,27.87
2022-10-31T08:58:10.136Z,39.42
2022-10-31T09:02:26.302Z,32.95
2022-10-31T09:06:50.461Z,29.33
2022-10-31T09:11:17.601Z,30.25
2022-10-31T09:15:35.624Z,29.10
2022-10-31T09:19:51.808Z,29.50
2022-10-31T09:24:08.031Z,25.30
2022-10-31T09:28:25.209Z,27.58
2022-10-31T09:32:41.299Z,25.45
2022-10-31T09:36:57.724Z,34.63
2022-10-31T09:42:04.306Z,27.98
2022-10-31T09:46:29.429Z,32.95
2022-10-31T09:50:58.711Z,37.15
2022-10-31T09:55:36.450Z,28.17
2022-10-31T09:59:52.623Z,34.72
2022-10-31T10:04:45.867Z,35.47
2022-10-31T10:09:02.540Z,29.80
2022-10-31T10:13:24.459Z,26.67
2022-10-31T10:18:01.939Z,33.20
2022-10-31T10:22:28.420Z,30.73
2022-10-31T10:26:52.988Z,35.05
2022-10-31T10:31:15.832Z,28.90
2022-10-31T10:35:36.550Z,26.55
2022-10-31T10:39:57.040Z,27.08
2022-10-31T10:44:13.387Z,29.50
2022-10-31T10:48:44.993Z,27.42
2022-10-31T10:53:36.420Z,28.35
2022-10-31T10:58:07.846Z,30.20
2022-10-31T11:02:32.576Z,31.25
2022-10-31T11:07:01.014Z,32.17
2022-10-31T11:11:20.227Z,32.60
2022-10-31T11:15:49.843Z,31.95
2022-10-31T11:20:18.118Z,32.78
2022-10-31T11:24:41.219Z,27.98
2022-10-31T11:29:00.963Z,33.00
2022-10-31T11:33:39.114Z,36.60
2022-10-31T11:38:06.941Z,30.98
2022-10-31T11:42:26.360Z,31.27
2022-10-31T11:46:51.527Z,30.65
2022-10-31T11:51:08.153Z,29.65
2022-10-31T11:55:41.142Z,28.12
2022-10-31T12:00:05.954Z,27.62
2022-10-31T12:04:31.023Z,29.90
2022-10-31T12:08:47.879Z,29.55
2022-10-31T12:13:34.310Z,32.85
2022-10-31T12:18:26.063Z,30.70
2022-10-31T12:23:00.404Z,24.65
2022-10-31T12:27:48.932Z,33.30
2022-10-31T12:32:32.712Z,27.40
2022-10-31T12:37:07.418Z,28.90
2022-10-31T12:41:55.944Z,28.12
2022-10-31T12:46:41.471Z,25.48
2022-10-31T12:51:03.477Z,28.52
2022-10-31T12:56:08.791Z,29.02
2022-10-31T13:00:28.141Z,27.30
2022-10-31T13:04:51.934Z,26.48
2022-10-31T13:09:14.285Z,29.37
2022-10-31T13:13:39.461Z,29.00
2022-10-31T13:18:03.018Z,24.70
2022-10-31T13:22:25.588Z,26.20
2022-10-31T13:26:58.900Z,27.20
2022-10-31T13:31:15.234Z,23.95
2022-10-31T13:36:00.110Z,27.30
2022-10-31T13:40:39.584Z,24.73
2022-10-31T13:44:55.974Z,23.20
2022-10-31T13:49:30.240Z,26.30
2022-10-31T13:53:53.066Z,26.70
2022-10-31T13:58:31.998Z,27.10
2022-10-31T14:02:59.093Z,27.98
2022-10-31T14:07:22.185Z,29.30
2022-10-31T14:11:38.365Z,31.23
2022-10-31T14:16:01.958Z,28.77
2022-10-31T14:20:18.021Z,25.02
2022-10-31T14:24:36.480Z,25.05
2022-10-31T14:28:55.044Z,31.35
2022-10-31T14:33:37.749Z,28.20
2022-10-31T14:38:17.976Z,37.00
2022-10-31T14:42:53.510Z,28.70
2022-10-31T14:47:51.027Z,27.42
2022-10-31T14:52:09.982Z,31.48
2022-10-31T14:56:33.536Z,32.72
2022-10-31T15:00:52.008Z,29.45
2022-10-31T15:05:12.712Z,25.88
2022-10-31T15:09:34.908Z,29.42
2022-10-31T15:13:53.228Z,33.85
2022-10-31T15:18:17.536Z,38.60
2022-10-31T15:22:34.115Z,44.75
2022-10-31T15:26:53.147Z,31.62
2022-10-31T15:31:16.903Z,100.05
2022-10-31T15:35:33.380Z,40.97
2022-10-31T15:39:50.643Z,36.88
2022-10-31T15:44:21.467Z,30.40
2022-10-31T15:48:39.548Z,28.00
2022-10-31T15:52:56.005Z,31.70
2022-10-31T15:57:13.340Z,33.15
2022-10-31T16:01:32.385Z,32.40
2022-10-31T16:05:57.758Z,32.25
2022-10-31T16:10:26.386Z,32.65
2022-10-31T16:14:42.843Z,37.38
2022-10-31T16:19:09.292Z,33.78
2022-10-31T16:23:30.032Z,34.70
2022-10-31T16:27:55.782Z,35.60
2022-10-31T16:32:34.258Z,34.80
2022-10-31T16:36:50.817Z,31.35
2022-10-31T16:41:08.163Z,31.55
2022-10-31T16:45:32.982Z,32.97
2022-10-31T16:49:50.854Z,31.02
2022-10-31T16:54:07.214Z,32.80
2022-10-31T16:58:31.944Z,29.48
2022-10-31T17:02:50.090Z,27.58
2022-10-31T17:07:06.502Z,25.42
2022-10-31T17:11:26.249Z,33.17
2022-10-31T17:15:48.250Z,27.02
2022-10-31T17:20:36.474Z,24.30
2022-10-31T17:24:52.575Z,26.08
2022-10-31T17:29:08.889Z,31.08
2022-10-31T17:33:25.103Z,25.92
2022-10-31T17:37:44.826Z,35.25
2022-10-31T17:42:01.172Z,30.67
2022-10-31T17:46:17.816Z,28.25
2022-10-31T17:50:34.206Z,28.10
2022-10-31T17:54:50.623Z,24.00
2022-10-31T18:03:28.055Z,25.10
2022-10-31T18:07:44.267Z,26.23
2022-10-31T18:12:00.723Z,24.08
2022-10-31T18:16:19.390Z,24.95
2022-10-31T18:20:35.570Z,25.02
2022-10-31T18:24:51.683Z,25.65
2022-10-31T18:29:07.924Z,23.75
2022-10-31T18:33:24.083Z,24.00
2022-10-31T18:37:40.281Z,19.55
2022-10-31T18:41:56.500Z,22.20
2022-10-31T18:46:16.050Z,20.67
2022-10-31T18:50:32.239Z,21.92
2022-10-31T18:54:48.849Z,20.75
2022-10-31T18:59:04.978Z,20.37
2022-10-31T19:03:26.235Z,19.70
2022-10-31T19:07:42.603Z,24.77
2022-10-31T19:11:58.719Z,22.33
2022-10-31T19:16:16.758Z,24.30
2022-10-31T19:20:33.076Z,27.55
2022-10-31T19:24:49.433Z,23.73
2022-10-31T19:29:06.812Z,22.00
2022-10-31T19:33:29.526Z,23.58
2022-10-31T19:37:49.767Z,22.20
2022-10-31T19:42:06.869Z,23.67
2022-10-31T19:46:48.233Z,24.30
2022-10-31T19:51:03.375Z,21.15
2022-10-31T19:55:19.471Z,23.92
2022-10-31T19:59:39.367Z,27.05
2022-10-31T20:03:56.055Z,27.13
2022-10-31T20:08:17.709Z,27.85
2022-10-31T20:12:34.256Z,29.17
2022-10-31T20:16:50.457Z,29.87
2022-10-31T20:21:12.105Z,29.83
2022-10-31T20:25:28.333Z,30.20
2022-10-31T20:29:44.510Z,28.65
2022-10-31T20:34:01.060Z,31.58
2022-10-31T20:38:17.445Z,28.30
2022-10-31T20:42:33.989Z,29.55
2022-10-31T20:46:50.347Z,24.98
2022-10-31T20:51:11.015Z,29.55
2022-10-31T20:55:27.503Z,26.67
2022-10-31T20:59:44.474Z,26.33
2022-10-31T21:04:01.534Z,26.30
2022-10-31T21:08:17.617Z,22.77
2022-10-31T21:12:33.823Z,30.30
2022-10-31T21:16:49.917Z,25.20
2022-10-31T21:21:11.496Z,24.55
2022-10-31T21:25:27.716Z,33.83
2022-10-31T21:29:43.843Z,37.03
2022-10-31T21:34:00.039Z,35.08
2022-10-31T21:38:16.911Z,32.42
2022-10-31T21:42:33.261Z,32.03
2022-10-31T21:46:49.730Z,41.58
2022-10-31T21:51:06.705Z,40.70
2022-10-31T21:55:22.985Z,36.85
2022-10-31T21:59:41.501Z,36.88
2022-10-31T22:03:58.549Z,44.97
2022-10-31T22:08:14.790Z,42.40
2022-10-31T22:12:30.924Z,46.67
2022-10-31T22:16:47.142Z,46.50
2022-10-31T22:21:08.464Z,45.30
2022-10-31T22:25:24.611Z,54.05
2022-10-31T22:29:40.735Z,49.45
2022-10-31T22:33:57.605Z,51.85
2022-10-31T22:38:13.736Z,45.67
2022-10-31T22:42:29.973Z,53.67
2022-10-31T22:46:46.105Z,52.47
2022-10-31T22:51:07.149Z,42.25
2022-10-31T22:55:23.375Z,46.65
2022-10-31T22:59:39.489Z,52.88
2022-10-31T23:03:56.142Z,44.55
2022-10-31T23:08:12.335Z,41.95
2022-10-31T23:13:05.888Z,43.72
2022-10-31T23:17:22.022Z,45.80
2022-10-31T23:21:56.146Z,42.42
2022-10-31T23:26:31.076Z,39.80
2022-10-31T23:30:47.284Z,42.28
2022-10-31T23:35:06.519Z,52.85
2022-10-31T23:39:25.078Z,35.67
2022-10-31T23:43:41.526Z,35.83
2022-10-31T23:47:57.672Z,34.40
2022-10-31T23:52:15.198Z,32.65
2022-10-31T23:56:31.428Z,32.45
